Terminal Aerodrome Forecast
Issued by NWS

Home | Current Version | Previous Version | Text Only | Print | Product List | Glossary On
Versions: 1 2 3 4 5 6 7 8 9 10 11 12 13 14 15 16
000
FTUS46 KSEW 251100
TAFPAE
TAF
KPAE 251120Z 2512/2612 20006KT P6SM OVC040
     FM251300 20006KT P6SM BKN010 OVC022
     FM252100 VRB03KT P6SM SCT025 OVC040=

USA.gov is the U.S. government's official web portal to all federal, state and local government web resources and services.